createdAt,value
2018-12-05T00:00:07.461Z,-1.75
2018-12-05T00:01:17.494Z,-1.74
2018-12-05T00:02:27.422Z,-1.72
2018-12-05T00:03:37.349Z,-1.79
2018-12-05T00:04:47.276Z,-1.72
2018-12-05T00:05:57.279Z,-1.72
2018-12-05T00:07:07.258Z,-1.72
2018-12-05T00:08:17.184Z,-1.81
2018-12-05T00:09:27.119Z,-1.78
2018-12-05T00:10:37.051Z,-1.78
2018-12-05T00:11:46.984Z,-1.76
2018-12-05T00:12:56.971Z,-1.72
2018-12-05T00:14:06.911Z,-1.78
2018-12-05T00:15:16.916Z,-1.81
2018-12-05T00:16:26.844Z,-1.79
2018-12-05T00:17:38.505Z,-1.64
2018-12-05T00:18:48.497Z,-1.63
2018-12-05T00:19:58.431Z,-1.58
2018-12-05T00:21:08.371Z,-1.64
2018-12-05T00:22:18.309Z,-1.69
2018-12-05T00:23:28.307Z,-1.66
2018-12-05T00:24:38.290Z,-1.61
2018-12-05T00:25:48.217Z,-1.66
2018-12-05T00:26:58.160Z,-1.66
2018-12-05T00:28:08.091Z,-1.66
2018-12-05T00:29:18.021Z,-1.71
2018-12-05T00:30:27.853Z,-1.64
2018-12-05T00:31:37.780Z,-1.69
2018-12-05T00:32:47.705Z,-1.64
2018-12-05T00:33:57.632Z,-1.63
2018-12-05T00:35:07.556Z,-1.63
2018-12-05T00:36:17.639Z,-1.68
2018-12-05T00:37:27.570Z,-1.64
2018-12-05T00:38:37.498Z,-1.63
2018-12-05T00:39:48.173Z,-1.6
2018-12-05T00:40:58.156Z,-1.56
2018-12-05T00:42:08.236Z,-1.61
2018-12-05T00:43:18.168Z,-1.61
2018-12-05T00:44:28.095Z,-1.58
2018-12-05T00:45:38.029Z,-1.57
2018-12-05T00:46:47.965Z,-1.61
2018-12-05T00:47:58.058Z,-1.66
2018-12-05T00:49:07.984Z,-1.66
2018-12-05T00:50:17.918Z,-1.58
2018-12-05T00:51:27.915Z,-1.69
2018-12-05T00:52:37.845Z,-1.63
2018-12-05T00:53:47.778Z,-1.74
2018-12-05T00:54:57.768Z,-1.76
2018-12-05T00:56:07.718Z,-1.74
2018-12-05T00:57:17.645Z,-1.82
2018-12-05T00:58:27.659Z,-1.74
2018-12-05T00:59:37.735Z,-1.72
2018-12-05T01:00:47.662Z,-1.68
2018-12-05T01:01:57.594Z,-1.61
2018-12-05T01:03:07.529Z,-1.63
2018-12-05T01:04:17.455Z,-1.69
2018-12-05T01:05:27.482Z,-1.64
2018-12-05T01:06:37.414Z,-1.5
2018-12-05T01:07:47.339Z,-1.43
2018-12-05T01:08:57.267Z,-1.42
2018-12-05T01:10:06.947Z,-1.43
2018-12-05T01:11:16.928Z,-1.4
2018-12-05T01:12:26.881Z,-1.45
2018-12-05T01:13:36.808Z,-1.42
2018-12-05T01:14:46.738Z,-1.46
2018-12-05T01:15:56.662Z,-1.48
2018-12-05T01:17:06.689Z,-1.4
2018-12-05T01:18:16.619Z,-1.45
2018-12-05T01:19:26.586Z,-1.46
2018-12-05T01:20:36.618Z,-1.38
2018-12-05T01:21:46.542Z,-1.38
2018-12-05T01:22:56.693Z,-1.42
2018-12-05T01:24:06.626Z,-1.4
2018-12-05T01:25:16.552Z,-1.45
2018-12-05T01:26:26.481Z,-1.46
2018-12-05T01:27:36.409Z,-1.45
2018-12-05T01:28:46.390Z,-1.46
2018-12-05T01:29:56.314Z,-1.45
2018-12-05T01:31:06.247Z,-1.57
2018-12-05T01:32:16.259Z,-1.4
2018-12-05T01:33:26.197Z,-1.43
2018-12-05T01:34:36.283Z,-1.39
2018-12-05T01:35:46.215Z,-1.46
2018-12-05T01:36:56.140Z,-1.46
2018-12-05T01:38:06.070Z,-1.43
2018-12-05T01:39:16.001Z,-1.46
2018-12-05T01:40:25.928Z,-1.46
2018-12-05T01:41:35.853Z,-1.45
2018-12-05T01:42:45.783Z,-1.53
2018-12-05T01:43:55.716Z,-1.5
2018-12-05T01:45:05.639Z,-1.56
2018-12-05T01:46:15.674Z,-1.53
2018-12-05T01:47:25.603Z,-1.54
2018-12-05T01:48:35.539Z,-1.64
2018-12-05T01:49:45.463Z,-1.64
2018-12-05T01:50:55.388Z,-1.72
2018-12-05T01:52:05.468Z,-1.69
2018-12-05T01:53:15.399Z,-1.71
2018-12-05T01:54:25.326Z,-1.74
2018-12-05T01:55:35.251Z,-1.79
2018-12-05T01:56:45.183Z,-1.79
2018-12-05T01:57:55.260Z,-1.75
2018-12-05T01:59:05.194Z,-1.72
2018-12-05T02:00:15.125Z,-1.84
2018-12-05T02:01:25.054Z,-1.76
2018-12-05T02:02:34.986Z,-1.78
2018-12-05T02:03:45.045Z,-1.87
2018-12-05T02:04:54.981Z,-1.92
2018-12-05T02:06:04.913Z,-1.84
2018-12-05T02:07:14.849Z,-1.96
2018-12-05T02:08:24.840Z,-1.89
2018-12-05T02:09:34.834Z,-1.89
2018-12-05T02:10:44.759Z,-1.78
2018-12-05T02:11:54.687Z,-1.82
2018-12-05T02:13:04.624Z,-1.75
2018-12-05T02:14:14.559Z,-1.79
2018-12-05T02:15:24.645Z,-1.74
2018-12-05T02:16:34.578Z,-1.69
2018-12-05T02:17:44.511Z,-1.71
2018-12-05T02:18:54.437Z,-1.61
2018-12-05T02:20:04.377Z,-1.64
2018-12-05T02:21:14.353Z,-1.66
2018-12-05T02:22:24.280Z,-1.64
2018-12-05T02:23:34.211Z,-1.68
2018-12-05T02:24:44.141Z,-1.53
2018-12-05T02:25:54.066Z,-1.64
2018-12-05T02:27:04.142Z,-1.66
2018-12-05T02:28:14.068Z,-1.63
2018-12-05T02:29:23.990Z,-1.6
2018-12-05T02:30:33.917Z,-1.68
2018-12-05T02:31:43.865Z,-1.75
2018-12-05T02:32:53.847Z,-1.71
2018-12-05T02:34:03.780Z,-1.71
2018-12-05T02:35:13.711Z,-1.72
2018-12-05T02:36:23.638Z,-1.75
2018-12-05T02:37:33.573Z,-1.71
2018-12-05T02:38:43.562Z,-1.72
2018-12-05T02:39:53.494Z,-1.78
2018-12-05T02:41:03.423Z,-1.81
2018-12-05T02:42:13.363Z,-1.81
2018-12-05T02:43:23.295Z,-1.79
2018-12-05T02:44:33.336Z,-1.84
2018-12-05T02:45:43.266Z,-1.76
2018-12-05T02:46:53.206Z,-1.84
2018-12-05T02:48:03.135Z,-1.86
2018-12-05T02:49:13.104Z,-1.71
2018-12-05T02:50:23.086Z,-1.74
2018-12-05T02:51:33.013Z,-1.76
2018-12-05T02:52:42.966Z,-1.79
2018-12-05T02:53:52.899Z,-1.71
2018-12-05T02:55:02.832Z,-1.76
2018-12-05T02:56:12.920Z,-1.76
2018-12-05T02:57:22.850Z,-1.76
2018-12-05T02:58:32.786Z,-1.82
2018-12-05T02:59:42.722Z,-1.78
2018-12-05T03:00:52.654Z,-1.96
2018-12-05T03:02:02.644Z,-1.86
2018-12-05T03:03:12.587Z,-1.82
2018-12-05T03:04:22.274Z,-1.97
2018-12-05T03:05:32.240Z,-1.97
2018-12-05T03:06:42.221Z,-1.94
2018-12-05T03:07:52.320Z,-1.97
2018-12-05T03:09:02.273Z,-1.96
2018-12-05T03:10:12.217Z,-2.05
2018-12-05T03:11:22.163Z,-2.07
2018-12-05T03:12:32.109Z,-2
2018-12-05T03:13:42.143Z,-2.04
2018-12-05T03:14:52.164Z,-2.13
2018-12-05T03:16:02.095Z,-2.17
2018-12-05T03:17:12.029Z,-2.22
2018-12-05T03:18:21.967Z,-2.18
2018-12-05T03:19:31.952Z,-2.23
2018-12-05T03:20:41.888Z,-2.2
2018-12-05T03:21:51.819Z,-2.22
2018-12-05T03:23:01.760Z,-2.13
2018-12-05T03:24:11.697Z,-2.1
2018-12-05T03:25:21.733Z,-2.08
2018-12-05T03:26:31.672Z,-2.04
2018-12-05T03:27:41.608Z,-2.02
2018-12-05T03:28:51.535Z,-2.04
2018-12-05T03:30:01.473Z,-2
2018-12-05T03:31:11.586Z,-1.96
2018-12-05T03:32:21.578Z,-1.97
2018-12-05T03:33:31.566Z,-1.94
2018-12-05T03:34:41.518Z,-1.89
2018-12-05T03:35:51.451Z,-2.02
2018-12-05T03:37:01.532Z,-1.97
2018-12-05T03:38:11.492Z,-1.87
2018-12-05T03:39:21.430Z,-1.82
2018-12-05T03:40:31.379Z,-1.87
2018-12-05T03:41:41.312Z,-1.82
2018-12-05T03:42:51.094Z,-1.87
2018-12-05T03:44:01.028Z,-1.9
2018-12-05T03:45:10.955Z,-1.87
2018-12-05T03:46:20.902Z,-1.86
2018-12-05T03:47:30.849Z,-1.84
2018-12-05T03:48:40.844Z,-1.74
2018-12-05T03:49:50.784Z,-1.94
2018-12-05T03:51:00.711Z,-1.9
2018-12-05T03:52:10.684Z,-1.94
2018-12-05T03:53:20.612Z,-1.79
2018-12-05T03:54:30.348Z,-1.82
2018-12-05T03:55:43.308Z,-1.79
2018-12-05T03:56:53.242Z,-1.86
2018-12-05T03:58:03.174Z,-1.81
2018-12-05T03:59:13.115Z,-1.81
2018-12-05T04:00:23.253Z,-1.82
2018-12-05T04:01:32.940Z,-1.86
2018-12-05T04:02:42.877Z,-1.82
2018-12-05T04:03:52.803Z,-1.79
2018-12-05T04:05:02.731Z,-1.66
2018-12-05T04:06:12.716Z,-1.69
2018-12-05T04:07:22.641Z,-1.64
2018-12-05T04:08:32.576Z,-1.64
2018-12-05T04:09:42.537Z,-1.63
2018-12-05T04:10:52.829Z,-1.61
2018-12-05T04:12:02.584Z,-1.6
2018-12-05T04:13:12.514Z,-1.57
2018-12-05T04:14:22.451Z,-1.51
2018-12-05T04:15:32.482Z,-1.6
2018-12-05T04:16:42.478Z,-1.64
2018-12-05T04:17:52.361Z,-1.61
2018-12-05T04:19:02.296Z,-1.58
2018-12-05T04:20:12.224Z,-1.6
2018-12-05T04:21:22.162Z,-1.63
2018-12-05T04:22:32.123Z,-1.61
2018-12-05T04:23:42.130Z,-1.63
2018-12-05T04:24:52.101Z,-1.68
2018-12-05T04:26:02.038Z,-1.69
2018-12-05T04:27:11.976Z,-1.66
2018-12-05T04:28:21.911Z,-1.66
2018-12-05T04:29:31.890Z,-1.68
2018-12-05T04:30:41.819Z,-1.66
2018-12-05T04:31:51.791Z,-1.72
2018-12-05T04:33:01.836Z,-1.72
2018-12-05T04:34:11.786Z,-1.74
2018-12-05T04:35:21.876Z,-1.75
2018-12-05T04:36:31.815Z,-1.84
2018-12-05T04:37:41.744Z,-1.74
2018-12-05T04:38:51.698Z,-1.74
2018-12-05T04:40:01.632Z,-1.76
2018-12-05T04:41:12.109Z,-1.72
2018-12-05T04:42:22.040Z,-1.79
2018-12-05T04:43:31.972Z,-1.87
2018-12-05T04:44:41.906Z,-1.84
2018-12-05T04:45:51.849Z,-1.81
2018-12-05T04:47:01.835Z,-1.89
2018-12-05T04:48:11.766Z,-1.96
2018-12-05T04:49:21.710Z,-1.82
2018-12-05T04:50:31.644Z,-1.93
2018-12-05T04:51:42.136Z,-1.97
2018-12-05T04:52:52.127Z,-1.84
2018-12-05T04:54:02.125Z,-1.93
2018-12-05T04:55:12.075Z,-1.86
2018-12-05T04:56:22.118Z,-1.94
2018-12-05T04:57:32.065Z,-1.93
2018-12-05T04:58:41.914Z,-2.05
2018-12-05T04:59:51.846Z,-2.02
2018-12-05T05:01:01.778Z,-2
2018-12-05T05:02:11.712Z,-2.02
2018-12-05T05:03:21.645Z,-1.94
2018-12-05T05:04:31.600Z,-2.04
2018-12-05T05:05:41.527Z,-1.93
2018-12-05T05:06:51.462Z,-1.89
2018-12-05T05:08:01.398Z,-1.92
2018-12-05T05:09:11.333Z,-1.86
2018-12-05T05:10:21.424Z,-1.93
2018-12-05T05:11:31.359Z,-1.89
2018-12-05T05:12:41.308Z,-1.87
2018-12-05T05:13:51.265Z,-1.92
2018-12-05T05:15:00.941Z,-1.96
2018-12-05T05:16:11.022Z,-1.9
2018-12-05T05:17:20.969Z,-1.93
2018-12-05T05:18:30.907Z,-2.02
2018-12-05T05:19:40.833Z,-2
2018-12-05T05:20:50.764Z,-1.97
2018-12-05T05:22:00.757Z,-1.97
2018-12-05T05:23:10.783Z,-1.96
2018-12-05T05:24:20.715Z,-1.96
2018-12-05T05:25:30.668Z,-2
2018-12-05T05:26:40.599Z,-1.9
2018-12-05T05:27:50.982Z,-1.97
2018-12-05T05:29:00.927Z,-2.02
2018-12-05T05:30:10.864Z,-1.96
2018-12-05T05:31:20.806Z,-1.94
2018-12-05T05:32:31.257Z,-1.87
2018-12-05T05:33:41.346Z,-1.93
2018-12-05T05:34:51.274Z,-1.9
2018-12-05T05:36:01.199Z,-1.92
2018-12-05T05:37:11.131Z,-1.94
2018-12-05T05:38:21.070Z,-1.9
2018-12-05T05:39:31.123Z,-1.97
2018-12-05T05:40:41.048Z,-1.93
2018-12-05T05:41:50.975Z,-1.99
2018-12-05T05:43:00.904Z,-1.9
2018-12-05T05:44:10.834Z,-1.99
2018-12-05T05:45:20.822Z,-2.02
2018-12-05T05:46:30.755Z,-2.04
2018-12-05T05:47:40.684Z,-1.99
2018-12-05T05:48:50.618Z,-1.97
2018-12-05T05:50:00.543Z,-2.04
2018-12-05T05:51:10.570Z,-2.11
2018-12-05T05:52:20.503Z,-2.04
2018-12-05T05:53:30.434Z,-2.1
2018-12-05T05:54:40.367Z,-2.05
2018-12-05T05:55:50.305Z,-2.02
2018-12-05T05:57:00.396Z,-2.02
2018-12-05T05:58:10.323Z,-2.11
2018-12-05T05:59:20.259Z,-2.1
2018-12-05T06:00:30.186Z,-2.11
2018-12-05T06:01:40.120Z,-2.13
2018-12-05T06:02:50.104Z,-2.18
2018-12-05T06:04:00.033Z,-2.2
2018-12-05T06:05:09.957Z,-2.13
2018-12-05T06:06:19.889Z,-2.17
2018-12-05T06:07:29.821Z,-2.15
2018-12-05T06:08:39.795Z,-2.18
2018-12-05T06:09:49.719Z,-2.29
2018-12-05T06:10:59.390Z,-2.25
2018-12-05T06:12:09.314Z,-2.33
2018-12-05T06:13:19.242Z,-2.29
2018-12-05T06:14:29.272Z,-2.33
2018-12-05T06:15:39.203Z,-2.36
2018-12-05T06:16:49.135Z,-2.33
2018-12-05T06:17:59.086Z,-2.47
2018-12-05T06:19:10.168Z,-2.45
2018-12-05T06:20:20.209Z,-2.42
2018-12-05T06:21:30.137Z,-2.33
2018-12-05T06:22:40.070Z,-2.4
2018-12-05T06:23:49.994Z,-2.36
2018-12-05T06:24:59.923Z,-2.48
2018-12-05T06:26:09.910Z,-2.44
2018-12-05T06:27:19.584Z,-2.45
2018-12-05T06:28:29.512Z,-2.48
2018-12-05T06:29:39.445Z,-2.5
2018-12-05T06:30:49.378Z,-2.4
2018-12-05T06:31:59.520Z,-2.44
2018-12-05T06:33:09.543Z,-2.36
2018-12-05T06:34:19.477Z,-2.36
2018-12-05T06:35:29.405Z,-2.23
2018-12-05T06:36:39.331Z,-2.26
2018-12-05T06:37:49.421Z,-2.18
2018-12-05T06:39:01.826Z,-2.1
2018-12-05T06:40:11.759Z,-2
2018-12-05T06:41:21.695Z,-1.96
2018-12-05T06:42:31.625Z,-1.9
2018-12-05T06:43:41.649Z,-1.94
2018-12-05T06:44:51.573Z,-1.94
2018-12-05T06:46:01.501Z,-1.97
2018-12-05T06:47:11.179Z,-1.99
2018-12-05T06:48:21.113Z,-2.08
2018-12-05T06:49:31.198Z,-2.04
2018-12-05T06:50:41.131Z,-2.02
2018-12-05T06:51:51.085Z,-2.04
2018-12-05T06:53:01.018Z,-2.1
2018-12-05T06:54:10.952Z,-2.14
2018-12-05T06:55:20.938Z,-2.14
2018-12-05T06:56:30.868Z,-2.1
2018-12-05T06:57:40.793Z,-2.13
2018-12-05T06:58:50.805Z,-2.17
2018-12-05T07:00:00.734Z,-2.23
2018-12-05T07:01:10.812Z,-2.18
2018-12-05T07:02:20.746Z,-2.14
2018-12-05T07:03:30.687Z,-2.22
2018-12-05T07:04:40.614Z,-2.11
2018-12-05T07:05:50.537Z,-2.07
2018-12-05T07:07:00.518Z,-2.08
2018-12-05T07:08:10.441Z,-2.05
2018-12-05T07:09:20.371Z,-2.05
2018-12-05T07:10:30.305Z,-2.13
2018-12-05T07:11:39.988Z,-2.13
2018-12-05T07:12:50.037Z,-2.05
2018-12-05T07:13:59.965Z,-2.05
2018-12-05T07:15:09.925Z,-2.02
2018-12-05T07:16:19.855Z,-2.04
2018-12-05T07:17:29.787Z,-2.08
2018-12-05T07:18:39.861Z,-2.02
2018-12-05T07:19:49.792Z,-2.04
2018-12-05T07:20:59.726Z,-2
2018-12-05T07:22:09.700Z,-2
2018-12-05T07:23:19.647Z,-1.96
2018-12-05T07:24:29.706Z,-1.97
2018-12-05T07:25:39.639Z,-2.07
2018-12-05T07:26:49.573Z,-2.05
2018-12-05T07:27:59.499Z,-2.05
2018-12-05T07:29:09.428Z,-2.04
2018-12-05T07:30:19.506Z,-2.05
2018-12-05T07:31:34.735Z,-1.96
2018-12-05T07:32:44.753Z,-1.97
2018-12-05T07:33:54.678Z,-2.02
2018-12-05T07:35:04.615Z,-1.93
2018-12-05T07:36:14.700Z,-1.87
2018-12-05T07:37:24.632Z,-1.87
2018-12-05T07:38:34.567Z,-1.78
2018-12-05T07:39:44.499Z,-1.82
2018-12-05T07:40:54.423Z,-1.66
2018-12-05T07:42:04.450Z,-1.64
2018-12-05T07:43:14.388Z,-1.48
2018-12-05T07:44:24.319Z,-1.5
2018-12-05T07:45:34.254Z,-1.57
2018-12-05T07:46:44.189Z,-1.56
2018-12-05T07:47:54.219Z,-1.54
2018-12-05T07:49:04.154Z,-1.53
2018-12-05T07:50:15.808Z,-1.57
2018-12-05T07:51:25.917Z,-1.66
2018-12-05T07:52:35.860Z,-1.64
2018-12-05T07:53:45.942Z,-1.72
2018-12-05T07:54:55.874Z,-1.63
2018-12-05T07:56:05.801Z,-1.79
2018-12-05T07:57:15.740Z,-1.74
2018-12-05T07:58:25.680Z,-1.69
2018-12-05T07:59:35.662Z,-1.76
2018-12-05T08:00:45.606Z,-1.75
2018-12-05T08:01:55.552Z,-1.87
2018-12-05T08:03:06.686Z,-1.84
2018-12-05T08:04:16.616Z,-1.96
2018-12-05T08:05:26.694Z,-1.92
2018-12-05T08:06:36.620Z,-1.89
2018-12-05T08:07:46.545Z,-1.82
2018-12-05T08:08:56.478Z,-1.87
2018-12-05T08:10:06.409Z,-1.84
2018-12-05T08:11:16.454Z,-1.78
2018-12-05T08:12:26.384Z,-1.84
2018-12-05T08:13:36.315Z,-1.82
2018-12-05T08:14:46.241Z,-1.92
2018-12-05T08:15:56.171Z,-1.86
2018-12-05T08:17:05.951Z,-1.89
2018-12-05T08:18:15.878Z,-1.92
2018-12-05T08:19:25.807Z,-1.93
2018-12-05T08:20:35.734Z,-1.93
2018-12-05T08:21:45.665Z,-1.86
2018-12-05T08:22:55.644Z,-1.9
2018-12-05T08:24:05.581Z,-1.84
2018-12-05T08:25:15.506Z,-1.84
2018-12-05T08:26:25.541Z,-1.97
2018-12-05T08:27:35.469Z,-1.9
2018-12-05T08:28:45.553Z,-1.79
2018-12-05T08:29:55.477Z,-1.87
2018-12-05T08:31:05.406Z,-1.84
2018-12-05T08:32:15.336Z,-1.87
2018-12-05T08:33:25.009Z,-1.82
2018-12-05T08:34:34.996Z,-1.74
2018-12-05T08:35:44.925Z,-1.68
2018-12-05T08:36:54.853Z,-1.68
2018-12-05T08:38:05.438Z,-1.53
2018-12-05T08:39:15.368Z,-1.42
2018-12-05T08:40:25.349Z,-1.5
2018-12-05T08:41:35.046Z,-1.39
2018-12-05T08:42:44.983Z,-1.25
2018-12-05T08:43:54.907Z,-1.33
2018-12-05T08:45:04.831Z,-1.27
2018-12-05T08:46:14.808Z,-1.32
2018-12-05T08:47:24.743Z,-1.3
2018-12-05T08:48:39.058Z,-1.29
2018-12-05T08:49:48.985Z,-1.25
2018-12-05T08:50:58.915Z,-1.29
2018-12-05T08:52:08.946Z,-1.22
2018-12-05T08:53:18.875Z,-1.24
2018-12-05T08:54:28.807Z,-1.29
2018-12-05T08:55:38.741Z,-1.35
2018-12-05T08:56:48.670Z,-1.32
2018-12-05T08:57:58.654Z,-1.33
2018-12-05T08:59:08.585Z,-1.3
2018-12-05T09:00:18.617Z,-1.38
2018-12-05T09:01:28.634Z,-1.36
2018-12-05T09:02:38.615Z,-1.36
2018-12-05T09:03:48.647Z,-1.36
2018-12-05T09:04:58.572Z,-1.39
2018-12-05T09:06:08.502Z,-1.38
2018-12-05T09:07:18.432Z,-1.42
2018-12-05T09:08:28.363Z,-1.38
2018-12-05T09:09:38.393Z,-1.5
2018-12-05T09:10:48.322Z,-1.43
2018-12-05T09:11:58.253Z,-1.43
2018-12-05T09:13:08.186Z,-1.38
2018-12-05T09:14:18.111Z,-1.42
2018-12-05T09:15:34.160Z,-1.43
2018-12-05T09:16:44.092Z,-1.5
2018-12-05T09:17:54.038Z,-1.33
2018-12-05T09:19:03.970Z,-1.3
2018-12-05T09:20:13.731Z,-1.3
2018-12-05T09:21:23.769Z,-1.4
2018-12-05T09:22:40.987Z,-1.27
2018-12-05T09:23:51.141Z,-1.27
2018-12-05T09:25:01.071Z,-1.27
2018-12-05T09:26:11.006Z,-1.29
2018-12-05T09:27:20.944Z,-1.24
2018-12-05T09:28:30.882Z,-1.21
2018-12-05T09:29:40.824Z,-1.19
2018-12-05T09:30:50.752Z,-1.21
2018-12-05T09:32:00.690Z,-1.22
2018-12-05T09:33:10.724Z,-1.15
2018-12-05T09:34:20.654Z,-1.15
2018-12-05T09:35:30.587Z,-1.12
2018-12-05T09:36:40.577Z,-1.14
2018-12-05T09:37:50.514Z,-1.07
2018-12-05T09:39:00.239Z,-1.06
2018-12-05T09:40:10.171Z,-1.07
2018-12-05T09:41:20.103Z,-1.11
2018-12-05T09:42:30.038Z,-1.09
2018-12-05T09:43:39.988Z,-1.07
2018-12-05T09:44:49.976Z,-1.03
2018-12-05T09:45:59.903Z,-1.07
2018-12-05T09:47:15.810Z,-1.04
2018-12-05T09:48:25.911Z,-1
2018-12-05T09:49:35.842Z,-0.99
2018-12-05T09:50:45.825Z,-1
2018-12-05T09:51:55.766Z,-0.97
2018-12-05T09:53:05.708Z,-0.91
2018-12-05T09:54:15.635Z,-0.97
2018-12-05T09:55:25.577Z,-0.96
2018-12-05T09:56:35.558Z,-0.87
2018-12-05T09:57:45.490Z,-0.94
2018-12-05T09:58:55.507Z,-0.82
2018-12-05T10:00:05.437Z,-0.87
2018-12-05T10:01:15.380Z,-0.93
2018-12-05T10:02:25.359Z,-0.91
2018-12-05T10:03:35.291Z,-0.87
2018-12-05T10:04:45.218Z,-0.87
2018-12-05T10:05:55.148Z,-0.74
2018-12-05T10:07:05.079Z,-0.85
2018-12-05T10:08:15.058Z,-0.7
2018-12-05T10:09:25.022Z,-0.74
2018-12-05T10:10:34.963Z,-0.77
2018-12-05T10:11:44.895Z,-0.72
2018-12-05T10:12:54.832Z,-0.69
2018-12-05T10:14:04.858Z,-0.78
2018-12-05T10:15:14.787Z,-0.63
2018-12-05T10:16:24.720Z,-0.7
2018-12-05T10:17:34.653Z,-0.7
2018-12-05T10:18:44.580Z,-0.69
2018-12-05T10:19:54.555Z,-0.67
2018-12-05T10:21:04.497Z,-0.62
2018-12-05T10:22:14.428Z,-0.63
2018-12-05T10:23:24.365Z,-0.63
2018-12-05T10:24:34.040Z,-0.62
2018-12-05T10:25:43.820Z,-0.56
2018-12-05T10:26:53.746Z,-0.66
2018-12-05T10:28:03.674Z,-0.48
2018-12-05T10:29:13.602Z,-0.35
2018-12-05T10:30:23.532Z,-0.15
2018-12-05T10:31:33.508Z,-0.12
2018-12-05T10:32:49.327Z,-0.03
2018-12-05T10:33:59.255Z,-0.02
2018-12-05T10:35:09.182Z,0.09
2018-12-05T10:36:19.110Z,0
2018-12-05T10:37:29.090Z,0.02
2018-12-05T10:38:39.028Z,0.12
2018-12-05T10:39:48.970Z,0.15
2018-12-05T10:40:58.898Z,0.2
2018-12-05T10:42:08.831Z,0.29
2018-12-05T10:43:18.910Z,0.39
2018-12-05T10:44:28.848Z,0.45
2018-12-05T10:45:38.782Z,0.45
2018-12-05T10:46:48.710Z,0.48
2018-12-05T10:47:58.734Z,0.55
2018-12-05T10:49:08.821Z,0.48
2018-12-05T10:50:18.754Z,0.47
2018-12-05T10:51:28.682Z,0.61
2018-12-05T10:52:38.624Z,0.63
2018-12-05T10:53:48.571Z,0.56
2018-12-05T10:54:58.503Z,0.61
2018-12-05T10:56:08.431Z,0.64
2018-12-05T10:57:18.375Z,0.71
2018-12-05T10:58:28.307Z,0.71
2018-12-05T10:59:38.239Z,0.77
2018-12-05T11:00:47.977Z,0.84
2018-12-05T11:01:57.921Z,0.85
2018-12-05T11:03:07.855Z,1
2018-12-05T11:04:17.787Z,1.06
2018-12-05T11:05:27.719Z,1.22
2018-12-05T11:06:37.748Z,1.13
2018-12-05T11:07:47.682Z,1.1
2018-12-05T11:08:57.619Z,1.22
2018-12-05T11:10:07.561Z,1.22
2018-12-05T11:11:17.494Z,1.39
2018-12-05T11:12:27.577Z,1.56
2018-12-05T11:13:37.509Z,1.57
2018-12-05T11:14:47.442Z,1.58
2018-12-05T11:15:57.468Z,1.67
2018-12-05T11:17:07.242Z,1.71
2018-12-05T11:18:17.279Z,1.79
2018-12-05T11:19:27.216Z,1.88
2018-12-05T11:20:37.159Z,1.98
2018-12-05T11:21:54.465Z,2.01
2018-12-05T11:23:04.399Z,2.04
2018-12-05T11:24:14.392Z,2.07
2018-12-05T11:25:24.341Z,2.15
2018-12-05T11:26:34.286Z,2.32
2018-12-05T11:27:43.969Z,2.4
2018-12-05T11:28:53.911Z,2.51
2018-12-05T11:30:03.852Z,2.51
2018-12-05T11:31:13.785Z,2.51
2018-12-05T11:32:23.731Z,2.57
2018-12-05T11:33:33.675Z,2.36
2018-12-05T11:34:43.615Z,2.41
2018-12-05T11:35:53.656Z,2.44
2018-12-05T11:37:03.591Z,2.5
2018-12-05T11:38:13.527Z,2.52
2018-12-05T11:39:23.465Z,2.55
2018-12-05T11:40:33.400Z,2.59
2018-12-05T11:41:43.484Z,2.75
2018-12-05T11:42:53.416Z,2.72
2018-12-05T11:44:03.356Z,2.73
2018-12-05T11:45:13.310Z,2.73
2018-12-05T11:46:23.245Z,2.87
2018-12-05T11:47:33.339Z,2.76
2018-12-05T11:48:43.276Z,2.91
2018-12-05T11:49:52.965Z,2.85
2018-12-05T11:51:02.912Z,2.98
2018-12-05T11:52:12.855Z,3.03
2018-12-05T11:53:22.971Z,2.98
2018-12-05T11:54:32.909Z,2.9
2018-12-05T11:55:42.863Z,2.95
2018-12-05T11:56:52.796Z,2.94
2018-12-05T11:58:02.809Z,2.91
2018-12-05T11:59:12.766Z,2.87
2018-12-05T12:00:22.703Z,2.88
2018-12-05T12:01:32.649Z,2.65
2018-12-05T12:02:42.585Z,2.68
2018-12-05T12:03:52.518Z,2.57
2018-12-05T12:05:02.610Z,2.52
2018-12-05T12:06:12.552Z,2.58
2018-12-05T12:07:22.496Z,2.46
2018-12-05T12:08:32.426Z,2.46
2018-12-05T12:09:42.377Z,2.39
2018-12-05T12:10:52.393Z,2.46
2018-12-05T12:12:02.329Z,2.58
2018-12-05T12:13:12.266Z,2.36
2018-12-05T12:14:22.200Z,2.36
2018-12-05T12:15:32.134Z,2.16
2018-12-05T12:16:42.128Z,2.1
2018-12-05T12:17:52.069Z,2.12
2018-12-05T12:19:02.007Z,2.03
2018-12-05T12:20:11.943Z,1.98
2018-12-05T12:21:21.890Z,1.86
2018-12-05T12:22:31.937Z,1.7
2018-12-05T12:23:41.889Z,1.56
2018-12-05T12:24:51.901Z,1.5
2018-12-05T12:26:01.851Z,1.25
2018-12-05T12:27:11.790Z,1.13
2018-12-05T12:28:21.835Z,1.09
2018-12-05T12:29:31.773Z,0.94
2018-12-05T12:30:41.712Z,0.85
2018-12-05T12:31:51.393Z,0.81
2018-12-05T12:33:02.692Z,0.74
2018-12-05T12:34:12.981Z,0.64
2018-12-05T12:35:22.930Z,0.58
2018-12-05T12:36:32.866Z,0.58
2018-12-05T12:37:42.818Z,0.51
2018-12-05T12:38:52.805Z,0.52
2018-12-05T12:40:02.866Z,0.67
2018-12-05T12:41:12.810Z,0.7
2018-12-05T12:42:22.745Z,0.85
2018-12-05T12:43:32.681Z,0.94
2018-12-05T12:44:42.610Z,0.91
2018-12-05T12:45:52.700Z,0.95
2018-12-05T12:47:02.639Z,1.02
2018-12-05T12:48:12.579Z,1.04
2018-12-05T12:49:22.515Z,1.03
2018-12-05T12:50:32.446Z,0.85
2018-12-05T12:51:42.530Z,0.76
2018-12-05T12:52:52.458Z,0.81
2018-12-05T12:54:02.386Z,0.92
2018-12-05T12:55:12.317Z,0.96
2018-12-05T12:56:22.250Z,1.12
2018-12-05T12:57:32.661Z,1.09
2018-12-05T12:58:42.593Z,1.12
2018-12-05T12:59:52.527Z,1.09
2018-12-05T13:01:02.464Z,1.22
2018-12-05T13:02:12.453Z,1.09
2018-12-05T13:03:22.437Z,1.12
2018-12-05T13:04:32.367Z,1.04
2018-12-05T13:05:42.318Z,0.96
2018-12-05T13:06:52.262Z,0.88
2018-12-05T13:08:02.205Z,0.81
2018-12-05T13:09:12.292Z,0.66
2018-12-05T13:10:22.223Z,0.55
2018-12-05T13:11:32.152Z,0.49
2018-12-05T13:12:42.084Z,0.39
2018-12-05T13:13:52.021Z,0.24
2018-12-05T13:15:01.969Z,0.16
2018-12-05T13:16:11.898Z,-0.02
2018-12-05T13:17:21.827Z,0.09
2018-12-05T13:18:31.760Z,-0.02
2018-12-05T13:19:41.454Z,-0.02
2018-12-05T13:20:51.286Z,-0.06
2018-12-05T13:22:01.225Z,-0.05
2018-12-05T13:23:11.155Z,-0.17
2018-12-05T13:24:21.083Z,-0.21
2018-12-05T13:25:31.015Z,-0.18
2018-12-05T13:26:41.016Z,-0.24
2018-12-05T13:27:50.944Z,-0.33
2018-12-05T13:29:00.915Z,-0.27
2018-12-05T13:30:12.454Z,-0.33
2018-12-05T13:31:22.454Z,-0.38
2018-12-05T13:32:32.483Z,-0.45
2018-12-05T13:33:42.415Z,-0.39
2018-12-05T13:34:52.387Z,-0.38
2018-12-05T13:36:02.325Z,-0.39
2018-12-05T13:37:12.254Z,-0.35
2018-12-05T13:38:22.347Z,-0.39
2018-12-05T13:39:32.276Z,-0.39
2018-12-05T13:40:42.209Z,-0.42
2018-12-05T13:41:52.380Z,-0.49
2018-12-05T13:43:02.055Z,-0.42
2018-12-05T13:44:11.985Z,-0.46
2018-12-05T13:45:21.917Z,-0.44
2018-12-05T13:46:34.978Z,-0.51
2018-12-05T13:47:44.910Z,-0.45
2018-12-05T13:48:54.842Z,-0.49
2018-12-05T13:50:04.923Z,-0.51
2018-12-05T13:51:14.851Z,-0.53
2018-12-05T13:52:24.805Z,-0.51
2018-12-05T13:53:34.743Z,-0.51
2018-12-05T13:54:44.675Z,-0.54
2018-12-05T13:55:54.706Z,-0.57
2018-12-05T13:57:04.637Z,-0.49
2018-12-05T13:58:14.572Z,-0.46
2018-12-05T13:59:24.500Z,-0.48
2018-12-05T14:00:34.435Z,-0.48
2018-12-05T14:01:44.465Z,-0.46
2018-12-05T14:02:54.398Z,-0.44
2018-12-05T14:04:04.334Z,-0.36
2018-12-05T14:05:14.268Z,-0.44
2018-12-05T14:06:24.196Z,-0.46
2018-12-05T14:07:34.632Z,-0.46
2018-12-05T14:08:44.571Z,-0.54
2018-12-05T14:09:54.509Z,-0.57
2018-12-05T14:11:04.197Z,-0.62
2018-12-05T14:12:14.144Z,-0.6
2018-12-05T14:13:24.178Z,-0.57
2018-12-05T14:14:33.852Z,-0.6
2018-12-05T14:15:43.780Z,-0.64
2018-12-05T14:16:53.710Z,-0.63
2018-12-05T14:18:07.207Z,-0.64
2018-12-05T14:19:17.251Z,-0.57
2018-12-05T14:20:27.220Z,-0.56
2018-12-05T14:21:37.148Z,-0.56
2018-12-05T14:22:47.082Z,-0.51
2018-12-05T14:23:57.011Z,-0.56
2018-12-05T14:25:07.056Z,-0.53
2018-12-05T14:26:16.985Z,-0.49
2018-12-05T14:27:26.661Z,-0.48
2018-12-05T14:28:36.706Z,-0.56
2018-12-05T14:29:46.640Z,-0.56
2018-12-05T14:30:56.728Z,-0.48
2018-12-05T14:32:06.666Z,-0.53
2018-12-05T14:33:16.600Z,-0.54
2018-12-05T14:34:26.540Z,-0.54
2018-12-05T14:35:36.475Z,-0.57
2018-12-05T14:36:46.558Z,-0.48
2018-12-05T14:37:56.488Z,-0.54
2018-12-05T14:39:06.416Z,-0.59
2018-12-05T14:40:16.359Z,-0.66
2018-12-05T14:41:26.290Z,-0.56
2018-12-05T14:42:36.371Z,-0.64
2018-12-05T14:43:46.311Z,-0.69
2018-12-05T14:44:56.240Z,-0.53
2018-12-05T14:46:07.365Z,-0.64
2018-12-05T14:47:17.434Z,-0.67
2018-12-05T14:48:27.524Z,-0.69
2018-12-05T14:49:37.453Z,-0.66
2018-12-05T14:50:47.382Z,-0.67
2018-12-05T14:51:57.308Z,-0.74
2018-12-05T14:53:07.242Z,-0.67
2018-12-05T14:54:17.223Z,-0.7
2018-12-05T14:55:27.153Z,-0.78
2018-12-05T14:56:37.163Z,-0.75
2018-12-05T14:57:47.098Z,-0.69
2018-12-05T14:58:57.032Z,-0.56
2018-12-05T15:00:07.078Z,-0.6
2018-12-05T15:01:17.019Z,-0.62
2018-12-05T15:02:26.956Z,-0.53
2018-12-05T15:03:36.895Z,-0.57
2018-12-05T15:04:46.826Z,-0.51
2018-12-05T15:05:56.610Z,-0.54
2018-12-05T15:07:06.542Z,-0.44
2018-12-05T15:08:16.471Z,-0.51
2018-12-05T15:09:26.401Z,-0.44
2018-12-05T15:10:36.328Z,-0.51